Time;durP1;ratioP1;P1;durP2;ratioP2;P2;SDS_P1;SDS_P2;PMS_P1;PMS_P2;Temp;Humidity;BMP_temperature;BMP_pressure;BME280_temperature;BME280_humidity;BME280_pressure;Samples;Min_cycle;Max_cycle;Signal;HPM_P1;HPM_P2
2022/03/10 00:00:03;;;;;;;37.38;25.23;;;25.40;99.90;;;;;;5053415;28;20057;-65
2022/03/10 00:02:30;;;;;;;27.27;20.10;;;25.30;99.90;;;;;;5053522;28;20040;-65
2022/03/10 00:04:56;;;;;;;23.98;16.10;;;25.20;99.90;;;;;;5072695;28;20480;-63
2022/03/10 00:07:23;;;;;;;28.75;16.58;;;25.20;99.90;;;;;;5073460;28;20028;-64
2022/03/10 00:09:50;;;;;;;25.88;17.50;;;25.20;99.90;;;;;;5073381;28;20032;-66
2022/03/10 00:12:16;;;;;;;30.35;17.15;;;25.10;99.90;;;;;;5073494;28;20021;-65
2022/03/10 00:14:43;;;;;;;31.23;18.38;;;25.10;99.90;;;;;;5073215;28;20033;-65
2022/03/10 00:17:10;;;;;;;22.77;15.10;;;25.00;99.90;;;;;;5073521;28;20078;-65
2022/03/10 00:19:37;;;;;;;23.95;14.73;;;25.00;99.90;;;;;;5073155;28;20024;-64
2022/03/10 00:22:05;;;;;;;18.23;11.40;;;25.00;99.90;;;;;;5073123;28;20098;-64
2022/03/10 00:24:32;;;;;;;20.83;12.63;;;24.90;99.90;;;;;;5073362;28;20029;-64
2022/03/10 00:26:58;;;;;;;25.30;16.67;;;25.00;99.90;;;;;;5073223;28;20048;-65
2022/03/10 00:29:25;;;;;;;24.75;16.63;;;25.00;99.90;;;;;;5073323;28;20489;-64
2022/03/10 00:31:52;;;;;;;18.35;13.32;;;25.10;99.90;;;;;;5073083;28;20039;-65
2022/03/10 00:34:18;;;;;;;19.25;12.75;;;25.10;99.90;;;;;;5073154;28;20029;-64
2022/03/10 00:36:45;;;;;;;20.95;11.32;;;25.10;99.90;;;;;;5073252;28;20052;-64
2022/03/10 00:39:12;;;;;;;15.25;9.98;;;25.20;99.90;;;;;;5073302;28;20495;-65
2022/03/10 00:41:39;;;;;;;16.98;10.45;;;25.10;99.90;;;;;;5072949;28;20032;-64
2022/03/10 00:44:06;;;;;;;19.50;9.73;;;25.10;99.90;;;;;;5073133;28;20036;-65
2022/03/10 00:46:32;;;;;;;17.90;9.70;;;25.20;99.90;;;;;;5073063;28;20053;-65
2022/03/10 00:48:59;;;;;;;15.52;9.40;;;25.20;99.90;;;;;;5072681;28;20465;-65
2022/03/10 00:51:26;;;;;;;14.65;9.70;;;25.20;99.90;;;;;;5072926;28;20037;-64
2022/03/10 00:53:52;;;;;;;14.65;8.77;;;25.30;99.90;;;;;;5073035;28;20093;-64
2022/03/10 00:56:19;;;;;;;13.65;9.25;;;25.40;99.90;;;;;;5073052;28;20078;-65
2022/03/10 00:58:46;;;;;;;16.92;8.93;;;25.40;99.90;;;;;;5073064;28;20052;-65
2022/03/10 01:01:13;;;;;;;13.93;8.48;;;25.50;99.90;;;;;;5072796;28;20028;-65
2022/03/10 01:03:39;;;;;;;10.60;7.32;;;25.50;99.90;;;;;;5072973;28;20028;-64
2022/03/10 01:06:06;;;;;;;12.35;7.88;;;25.60;99.90;;;;;;5073278;28;20037;-64
2022/03/10 01:08:33;;;;;;;10.43;7.00;;;25.60;99.90;;;;;;5076483;28;20036;-64
2022/03/10 01:11:00;;;;;;;9.65;6.90;;;25.60;99.90;;;;;;5076832;28;20039;-64
2022/03/10 01:13:27;;;;;;;8.50;7.18;;;25.60;99.90;;;;;;5076728;28;20060;-64
2022/03/10 01:15:53;;;;;;;13.30;7.70;;;25.70;99.90;;;;;;5076523;28;20036;-64
2022/03/10 01:18:20;;;;;;;9.60;7.03;;;25.70;99.90;;;;;;5076136;28;20444;-64
2022/03/10 01:20:47;;;;;;;9.85;6.65;;;25.80;99.90;;;;;;5076441;28;20542;-64
2022/03/10 01:23:13;;;;;;;11.55;7.47;;;25.80;99.90;;;;;;5076112;28;20028;-63
2022/03/10 01:25:40;;;;;;;10.52;7.50;;;25.80;99.90;;;;;;5076184;28;20405;-64
2022/03/10 01:28:07;;;;;;;14.05;7.93;;;25.90;99.90;;;;;;5076490;28;20024;-64
2022/03/10 01:30:33;;;;;;;13.13;7.88;;;25.90;99.90;;;;;;5074641;28;20112;-64
2022/03/10 01:33:00;;;;;;;18.45;8.40;;;26.00;99.90;;;;;;5075973;28;20036;-63
2022/03/10 01:35:27;;;;;;;12.32;8.30;;;26.00;99.90;;;;;;5076218;28;20177;-63
2022/03/10 01:37:54;;;;;;;12.95;7.68;;;26.00;99.90;;;;;;5076196;28;20035;-64
2022/03/10 01:40:21;;;;;;;16.80;10.93;;;26.00;99.90;;;;;;5069971;28;20393;-64
2022/03/10 01:42:48;;;;;;;12.13;7.55;;;26.00;99.90;;;;;;5067823;28;20271;-63
2022/03/10 01:45:16;;;;;;;15.07;7.93;;;26.10;99.90;;;;;;5065262;28;20094;-64
2022/03/10 01:47:43;;;;;;;9.70;7.07;;;26.10;99.90;;;;;;5070073;28;20433;-64
2022/03/10 01:50:12;;;;;;;9.43;7.00;;;26.10;99.90;;;;;;5065718;28;20039;-64
2022/03/10 01:52:40;;;;;;;13.93;6.95;;;26.10;99.90;;;;;;5066225;28;20457;-64
2022/03/10 01:55:08;;;;;;;9.25;7.32;;;26.20;99.90;;;;;;5065628;28;20029;-65
2022/03/10 01:57:35;;;;;;;15.30;7.28;;;26.20;99.90;;;;;;5067694;28;20031;-64
2022/03/10 02:00:02;;;;;;;30.23;20.48;;;26.30;99.90;;;;;;5066660;28;20032;-64
2022/03/10 02:02:29;;;;;;;13.50;7.30;;;26.40;99.90;;;;;;5065522;28;20025;-65
2022/03/10 02:04:56;;;;;;;14.55;9.77;;;26.50;99.90;;;;;;5064824;28;20025;-64
2022/03/10 02:12:40;;;;;;;9.60;5.93;;;26.50;99.90;;;;;;5068790;28;20028;-64
2022/03/10 02:17:50;;;;;;;15.32;7.88;;;26.60;99.90;;;;;;5065504;28;20515;-64
2022/03/10 02:20:17;;;;;;;9.45;6.80;;;26.70;99.90;;;;;;5066226;28;20405;-64
2022/03/10 02:22:43;;;;;;;13.13;7.65;;;26.70;99.90;;;;;;5066142;28;20020;-64
2022/03/10 02:25:13;;;;;;;10.85;8.10;;;26.70;99.90;;;;;;5064630;28;20553;-65
2022/03/10 02:27:40;;;;;;;11.40;7.68;;;26.80;99.90;;;;;;5064150;28;20416;-64
2022/03/10 02:30:07;;;;;;;10.65;7.20;;;26.90;99.90;;;;;;5067945;28;20033;-64
2022/03/10 02:32:34;;;;;;;17.35;7.82;;;26.90;99.90;;;;;;5065589;28;20029;-64
2022/03/10 02:35:01;;;;;;;11.10;7.68;;;27.00;99.90;;;;;;5063417;28;20025;-65
2022/03/10 02:37:27;;;;;;;8.98;6.45;;;27.00;99.90;;;;;;5065387;28;20029;-64
2022/03/10 02:39:54;;;;;;;13.85;7.60;;;27.20;99.90;;;;;;5073407;28;20038;-66
2022/03/10 02:42:21;;;;;;;10.48;5.60;;;27.20;99.90;;;;;;5074028;28;20037;-64
2022/03/10 02:44:49;;;;;;;8.82;6.22;;;27.30;99.90;;;;;;5074673;28;20075;-64
2022/03/10 02:47:17;;;;;;;8.50;6.13;;;27.30;99.90;;;;;;5074546;28;20029;-65
2022/03/10 02:49:44;;;;;;;9.00;6.38;;;27.40;99.90;;;;;;5074101;28;20506;-63
2022/03/10 02:52:11;;;;;;;40.80;28.25;;;27.40;99.90;;;;;;5074012;28;20040;-63
2022/03/10 02:54:38;;;;;;;26.58;15.82;;;27.50;99.90;;;;;;5074524;28;20025;-64
2022/03/10 02:57:05;;;;;;;7.93;5.88;;;27.60;99.90;;;;;;5074073;28;20176;-64
2022/03/10 02:59:32;;;;;;;9.38;5.72;;;27.60;99.90;;;;;;5074008;28;20465;-64
2022/03/10 03:01:58;;;;;;;7.10;4.65;;;27.70;99.90;;;;;;5072386;28;20489;-65
2022/03/10 03:04:26;;;;;;;4.72;3.90;;;27.70;99.90;;;;;;5069589;28;20055;-65
2022/03/10 03:06:53;;;;;;;7.40;4.00;;;28.00;99.90;;;;;;5074127;28;20052;-62
2022/03/10 03:09:19;;;;;;;6.95;4.43;;;28.00;99.90;;;;;;5073802;28;20103;-62
2022/03/10 03:11:46;;;;;;;6.82;4.90;;;28.20;99.90;;;;;;5066834;28;20128;-62
2022/03/10 03:14:13;;;;;;;11.93;4.68;;;28.20;99.90;;;;;;5072972;28;20473;-63
2022/03/10 03:16:40;;;;;;;11.10;7.70;;;28.30;99.90;;;;;;5073731;28;20032;-63
2022/03/10 03:19:07;;;;;;;7.32;3.60;;;28.40;99.90;;;;;;5073678;28;20036;-63
2022/03/10 03:21:33;;;;;;;5.03;4.03;;;28.40;99.90;;;;;;5073174;28;20071;-63
2022/03/10 03:24:00;;;;;;;6.07;3.75;;;28.50;99.90;;;;;;5073826;28;20385;-63
2022/03/10 03:26:27;;;;;;;7.72;4.40;;;28.60;99.90;;;;;;5068783;28;20052;-63
2022/03/10 03:28:55;;;;;;;8.43;5.15;;;28.70;99.90;;;;;;5064787;28;20393;-63
2022/03/10 03:31:21;;;;;;;5.22;4.07;;;28.90;99.90;;;;;;5061394;28;20032;-63
2022/03/10 03:33:50;;;;;;;5.68;4.32;;;28.90;99.90;;;;;;5056125;28;20372;-63
2022/03/10 03:36:17;;;;;;;6.70;4.28;;;28.90;99.90;;;;;;5068011;28;20032;-63
2022/03/10 03:38:43;;;;;;;9.20;5.53;;;29.00;99.90;;;;;;5067742;28;20032;-62
2022/03/10 03:41:10;;;;;;;7.10;4.30;;;28.90;99.90;;;;;;5067493;28;20035;-62
2022/03/10 03:43:37;;;;;;;9.05;4.50;;;29.10;99.90;;;;;;5070637;28;20027;-63
2022/03/10 03:46:03;;;;;;;7.50;5.30;;;29.20;99.90;;;;;;5061698;28;20054;-63
2022/03/10 03:48:30;;;;;;;9.80;5.60;;;29.30;99.90;;;;;;5065932;28;20021;-62
2022/03/10 03:50:57;;;;;;;7.68;4.03;;;29.40;99.90;;;;;;5067411;28;20054;-62
2022/03/10 03:53:24;;;;;;;6.05;3.75;;;29.40;99.90;;;;;;5060824;28;20035;-63
2022/03/10 03:55:50;;;;;;;3.80;3.35;;;29.50;99.90;;;;;;5071442;28;20028;-62
2022/03/10 03:58:19;;;;;;;6.50;4.30;;;29.50;99.90;;;;;;5069374;28;20085;-63
2022/03/10 04:00:45;;;;;;;7.43;4.03;;;29.50;99.90;;;;;;5073636;28;20056;-63
2022/03/10 04:03:13;;;;;;;4.57;3.80;;;29.50;99.90;;;;;;5073352;28;20028;-63
2022/03/10 04:05:40;;;;;;;6.20;3.80;;;29.50;99.90;;;;;;5073481;28;20381;-63
2022/03/10 04:08:07;;;;;;;5.75;4.28;;;29.60;99.90;;;;;;5069587;28;20358;-63
2022/03/10 04:10:34;;;;;;;6.45;4.60;;;29.60;99.90;;;;;;5072826;28;20434;-63
2022/03/10 04:13:01;;;;;;;7.82;4.93;;;29.60;99.90;;;;;;5072289;28;20025;-62
2022/03/10 04:15:28;;;;;;;5.70;4.25;;;29.60;99.90;;;;;;5073082;28;20041;-62
2022/03/10 04:17:54;;;;;;;7.95;3.95;;;29.70;99.90;;;;;;5073137;28;20043;-62
2022/03/10 04:20:21;;;;;;;6.40;3.38;;;29.70;99.90;;;;;;5072683;28;20511;-63
2022/03/10 04:22:48;;;;;;;5.00;3.80;;;29.80;99.90;;;;;;5073000;28;20032;-62
2022/03/10 04:25:15;;;;;;;6.03;4.57;;;29.90;99.90;;;;;;5072841;28;20415;-63
2022/03/10 04:27:41;;;;;;;7.90;3.40;;;30.00;99.90;;;;;;5072978;28;20116;-64
2022/03/10 04:30:08;;;;;;;7.43;5.00;;;30.00;99.90;;;;;;5058402;28;20147;-63
2022/03/10 04:32:40;;;;;;;5.25;4.25;;;30.10;99.90;;;;;;5068698;28;20481;-63
2022/03/10 04:35:08;;;;;;;8.23;4.60;;;30.30;99.90;;;;;;5067639;28;20066;-62
2022/03/10 04:37:34;;;;;;;6.43;4.60;;;30.40;99.90;;;;;;5064719;28;20033;-62
2022/03/10 04:40:01;;;;;;;7.93;4.93;;;30.30;99.90;;;;;;5068310;28;20029;-63
2022/03/10 04:42:28;;;;;;;6.93;5.25;;;30.30;99.90;;;;;;5070139;28;20013;-63
2022/03/10 04:44:54;;;;;;;12.93;7.15;;;30.30;99.90;;;;;;5070913;28;20032;-63
2022/03/10 04:47:21;;;;;;;6.35;4.88;;;30.40;99.90;;;;;;5070030;28;20036;-61
2022/03/10 04:49:48;;;;;;;7.60;4.10;;;30.50;99.90;;;;;;5067887;28;20029;-62
2022/03/10 04:52:14;;;;;;;5.28;4.35;;;30.50;99.90;;;;;;5072903;28;20101;-62
2022/03/10 04:54:41;;;;;;;5.15;4.50;;;30.60;99.90;;;;;;5068191;28;20041;-60
2022/03/10 04:57:08;;;;;;;7.03;4.93;;;30.70;99.90;;;;;;5073177;28;20484;-62
2022/03/10 04:59:34;;;;;;;9.40;4.30;;;30.60;99.90;;;;;;5070779;28;20039;-62
2022/03/10 05:02:01;;;;;;;7.20;4.28;;;30.40;99.90;;;;;;5067777;28;20037;-62
2022/03/10 05:04:28;;;;;;;5.63;4.32;;;30.30;99.90;;;;;;5069935;28;20060;-63
2022/03/10 05:06:54;;;;;;;6.07;4.28;;;30.30;99.90;;;;;;5072687;28;20437;-61
2022/03/10 05:09:21;;;;;;;4.75;3.60;;;30.40;99.90;;;;;;5067708;28;20033;-62
2022/03/10 05:11:48;;;;;;;7.45;3.60;;;30.50;99.90;;;;;;5059113;28;20099;-63
2022/03/10 05:14:14;;;;;;;14.27;4.20;;;30.70;99.90;;;;;;5068040;28;20181;-61
2022/03/10 05:16:41;;;;;;;9.52;4.45;;;30.80;99.90;;;;;;5073568;28;20036;-63
2022/03/10 05:19:08;;;;;;;9.93;4.30;;;30.90;99.90;;;;;;5075358;28;20032;-63
2022/03/10 05:21:34;;;;;;;4.75;4.10;;;30.90;99.90;;;;;;5073262;28;20489;-64
2022/03/10 05:24:01;;;;;;;9.77;3.80;;;30.90;99.90;;;;;;5076111;28;20029;-65
2022/03/10 05:26:28;;;;;;;9.30;5.13;;;30.80;99.90;;;;;;5076068;28;20025;-65
2022/03/10 05:28:55;;;;;;;10.00;4.03;;;30.80;99.90;;;;;;5076250;28;20440;-62
2022/03/10 05:31:21;;;;;;;6.38;3.92;;;30.60;99.90;;;;;;5075909;28;20017;-61
2022/03/10 05:33:48;;;;;;;6.25;3.95;;;30.50;99.90;;;;;;5076163;28;20077;-62
2022/03/10 05:36:18;;;;;;;9.73;4.90;;;30.50;99.90;;;;;;5075373;28;20051;-62
2022/03/10 05:38:44;;;;;;;5.20;4.57;;;30.40;99.90;;;;;;5070524;28;20033;-62
2022/03/10 05:41:11;;;;;;;5.35;4.40;;;30.40;99.90;;;;;;5068529;28;20538;-62
2022/03/10 05:43:38;;;;;;;5.82;3.65;;;30.40;99.90;;;;;;5075862;28;20056;-62
2022/03/10 05:46:05;;;;;;;9.85;4.70;;;30.50;99.90;;;;;;5075994;28;20033;-62
2022/03/10 05:48:32;;;;;;;8.85;4.22;;;30.60;99.90;;;;;;5068124;28;20021;-61
2022/03/10 05:50:58;;;;;;;5.63;4.72;;;30.60;99.90;;;;;;5067800;28;20039;-62
2022/03/10 05:53:26;;;;;;;6.05;4.63;;;30.70;99.90;;;;;;5074739;28;20028;-62
2022/03/10 05:55:53;;;;;;;5.35;4.00;;;30.80;99.90;;;;;;5056266;28;20485;-61
2022/03/10 05:58:19;;;;;;;9.90;5.68;;;31.00;99.90;;;;;;5059020;28;20068;-62
2022/03/10 06:00:46;;;;;;;11.57;4.75;;;31.10;99.90;;;;;;5059118;28;20208;-62
2022/03/10 06:03:13;;;;;;;9.75;5.40;;;31.10;99.90;;;;;;5072783;28;20028;-61
2022/03/10 06:05:40;;;;;;;6.03;4.78;;;30.90;99.90;;;;;;5073955;28;20032;-62
2022/03/10 06:08:07;;;;;;;8.68;4.88;;;30.90;99.90;;;;;;5070504;28;20042;-63
2022/03/10 06:10:34;;;;;;;6.63;4.28;;;30.80;99.90;;;;;;5069490;28;20545;-64
2022/03/10 06:13:01;;;;;;;5.80;4.00;;;30.70;99.90;;;;;;5068944;28;20043;-64
2022/03/10 06:15:27;;;;;;;6.35;3.58;;;30.70;99.90;;;;;;5074514;28;20028;-62
2022/03/10 06:17:54;;;;;;;9.10;4.30;;;30.70;99.90;;;;;;5075167;28;20377;-62
2022/03/10 06:20:21;;;;;;;9.52;4.10;;;30.70;99.90;;;;;;5073534;28;20558;-63
2022/03/10 06:22:47;;;;;;;5.80;3.90;;;30.90;99.90;;;;;;5074394;28;20358;-62
2022/03/10 06:25:14;;;;;;;23.35;5.57;;;31.10;99.90;;;;;;5074985;28;20488;-62
2022/03/10 06:27:41;;;;;;;11.50;4.55;;;31.20;99.90;;;;;;5074102;28;20033;-62
2022/03/10 06:30:08;;;;;;;9.27;4.97;;;31.20;99.90;;;;;;5074762;28;20056;-63
2022/03/10 06:32:35;;;;;;;10.45;4.18;;;31.20;99.90;;;;;;5074639;28;20025;-62
2022/03/10 06:35:01;;;;;;;7.47;4.60;;;31.30;99.90;;;;;;5072380;28;20091;-61
2022/03/10 06:37:28;;;;;;;7.63;4.03;;;31.30;99.90;;;;;;5062181;28;20029;-62
2022/03/10 06:39:55;;;;;;;5.90;3.78;;;31.40;99.90;;;;;;5074494;28;20045;-62
2022/03/10 06:42:22;;;;;;;4.93;3.30;;;31.40;99.90;;;;;;5075402;28;20020;-62
2022/03/10 06:44:49;;;;;;;4.20;3.33;;;31.50;99.90;;;;;;5076420;28;20035;-61
2022/03/10 06:47:16;;;;;;;3.55;2.83;;;31.50;99.50;;;;;;5070698;28;20020;-63
2022/03/10 06:49:43;;;;;;;4.22;3.83;;;31.60;99.90;;;;;;5071109;28;20398;-62
2022/03/10 06:52:10;;;;;;;6.70;4.15;;;31.60;99.90;;;;;;5071518;28;20071;-62
2022/03/10 06:54:38;;;;;;;7.03;5.20;;;31.70;99.90;;;;;;5074551;28;20131;-63
2022/03/10 06:57:05;;;;;;;8.30;5.03;;;31.70;99.90;;;;;;5073921;28;20385;-63
2022/03/10 06:59:32;;;;;;;5.68;4.28;;;31.70;99.90;;;;;;5074062;28;20059;-63
2022/03/10 07:01:59;;;;;;;12.75;9.85;;;31.90;98.60;;;;;;5073676;28;20032;-63
2022/03/10 07:04:26;;;;;;;8.55;5.05;;;31.90;98.60;;;;;;5070626;28;20028;-63
2022/03/10 07:06:53;;;;;;;4.43;4.03;;;32.00;99.30;;;;;;5069646;28;20111;-63
2022/03/10 07:09:19;;;;;;;11.00;4.18;;;31.90;97.90;;;;;;5067404;28;20024;-61
2022/03/10 07:11:47;;;;;;;5.20;3.50;;;31.80;98.30;;;;;;5073765;28;20060;-62
2022/03/10 07:14:14;;;;;;;4.78;3.40;;;31.80;96.70;;;;;;5067695;28;20040;-62
2022/03/10 07:16:41;;;;;;;6.38;3.80;;;31.90;96.50;;;;;;5069230;28;20032;-63
2022/03/10 07:19:09;;;;;;;3.97;3.45;;;32.00;96.50;;;;;;5070162;28;20455;-62
2022/03/10 07:21:38;;;;;;;5.38;3.85;;;32.10;95.70;;;;;;5072936;28;20535;-61
2022/03/10 07:24:06;;;;;;;5.50;3.85;;;32.10;96.60;;;;;;5073599;28;20020;-61
2022/03/10 07:26:33;;;;;;;6.35;3.35;;;32.20;97.40;;;;;;5071154;28;20033;-61
2022/03/10 07:29:01;;;;;;;5.63;3.10;;;32.30;97.30;;;;;;5058132;28;20054;-62
2022/03/10 07:31:29;;;;;;;3.78;3.38;;;32.40;96.30;;;;;;5069250;28;20032;-61
2022/03/10 07:33:56;;;;;;;3.60;2.83;;;32.40;96.20;;;;;;5073376;28;20047;-62
2022/03/10 07:36:23;;;;;;;4.68;3.35;;;32.50;96.40;;;;;;5073686;28;20034;-63
2022/03/10 07:38:50;;;;;;;6.97;4.65;;;32.50;95.80;;;;;;5073084;28;20036;-62
2022/03/10 07:41:17;;;;;;;14.82;4.03;;;32.70;94.00;;;;;;5073315;28;20025;-63
2022/03/10 07:43:43;;;;;;;10.82;5.22;;;32.70;94.40;;;;;;5073445;28;20071;-62
2022/03/10 07:46:10;;;;;;;11.52;6.65;;;32.60;93.80;;;;;;5073638;28;20025;-62
2022/03/10 07:48:37;;;;;;;11.55;6.43;;;32.60;94.30;;;;;;5073695;28;20048;-63
2022/03/10 07:51:03;;;;;;;12.02;10.73;;;32.60;93.00;;;;;;5072405;28;20021;-63
2022/03/10 07:53:30;;;;;;;7.68;6.78;;;32.50;92.20;;;;;;5073464;28;20035;-61
2022/03/10 07:55:57;;;;;;;10.15;6.13;;;32.50;93.20;;;;;;5071752;28;20051;-62
2022/03/10 07:58:25;;;;;;;8.98;6.28;;;32.50;94.20;;;;;;5065070;28;20055;-62
2022/03/10 08:00:57;;;;;;;7.80;6.57;;;32.60;94.40;;;;;;5067761;28;20036;-63
2022/03/10 08:03:25;;;;;;;13.80;6.40;;;32.60;94.00;;;;;;5064900;28;20524;-62
2022/03/10 08:05:52;;;;;;;8.30;6.20;;;32.60;93.70;;;;;;5068136;28;20048;-62
2022/03/10 08:08:19;;;;;;;12.52;9.13;;;32.60;94.10;;;;;;5073379;28;20024;-62
2022/03/10 08:10:46;;;;;;;12.75;9.45;;;32.50;94.50;;;;;;5069537;28;20036;-61
2022/03/10 08:13:13;;;;;;;10.38;7.43;;;32.50;94.60;;;;;;5068130;28;20069;-62
2022/03/10 08:15:43;;;;;;;13.77;7.60;;;32.50;94.00;;;;;;5064875;28;20037;-63
2022/03/10 08:18:10;;;;;;;13.15;7.03;;;32.40;94.30;;;;;;5063885;28;20029;-62
2022/03/10 08:20:39;;;;;;;9.55;5.93;;;32.20;95.90;;;;;;5071661;28;20098;-62
2022/03/10 08:23:06;;;;;;;8.63;5.35;;;32.10;96.90;;;;;;5070806;28;20025;-62
2022/03/10 08:25:33;;;;;;;22.05;18.88;;;32.00;97.00;;;;;;5071238;28;20081;-62
2022/03/10 08:28:01;;;;;;;89.72;71.13;;;31.80;98.10;;;;;;5069759;28;20395;-62
2022/03/10 08:30:28;;;;;;;64.72;48.60;;;31.80;99.50;;;;;;5069356;28;20089;-61
2022/03/10 08:32:54;;;;;;;643.13;483.88;;;31.80;99.90;;;;;;5077847;28;20027;-62
2022/03/10 08:35:21;;;;;;;50.67;35.90;;;31.70;99.90;;;;;;5077413;28;20389;-62
2022/03/10 08:37:48;;;;;;;95.35;74.75;;;31.70;99.90;;;;;;5070785;28;20040;-62
2022/03/10 08:40:19;;;;;;;62.92;51.10;;;31.60;99.90;;;;;;5077108;28;20043;-62
2022/03/10 08:42:47;;;;;;;51.25;41.35;;;31.60;99.90;;;;;;5072634;28;20028;-61
2022/03/10 08:45:14;;;;;;;29.17;22.00;;;31.50;99.90;;;;;;5070110;28;20103;-61
2022/03/10 08:47:42;;;;;;;19.58;13.38;;;31.40;99.90;;;;;;5077229;28;20362;-62
2022/03/10 08:50:11;;;;;;;20.33;12.20;;;31.30;99.90;;;;;;5077250;28;20138;-62
2022/03/10 08:52:38;;;;;;;22.50;13.13;;;31.30;99.90;;;;;;5076854;28;20373;-62
2022/03/10 08:55:05;;;;;;;24.20;15.27;;;31.20;99.90;;;;;;5076802;28;20112;-63
2022/03/10 08:57:34;;;;;;;46.63;28.25;;;31.30;99.90;;;;;;5075941;28;20028;-62
2022/03/10 09:00:00;;;;;;;88.45;60.13;;;31.30;99.90;;;;;;5076798;28;20025;-61
2022/03/10 09:02:28;;;;;;;118.88;106.30;;;31.30;99.90;;;;;;5076423;28;20024;-63
2022/03/10 09:04:55;;;;;;;44.58;37.25;;;31.30;99.90;;;;;;5076973;28;20058;-63
2022/03/10 09:07:21;;;;;;;33.55;25.65;;;31.30;99.90;;;;;;5077101;28;20036;-63
2022/03/10 09:09:48;;;;;;;22.52;16.20;;;31.40;99.90;;;;;;5076400;28;20484;-62
2022/03/10 09:12:15;;;;;;;18.85;14.93;;;31.40;99.90;;;;;;5076148;28;20062;-63
2022/03/10 09:14:41;;;;;;;21.70;17.05;;;31.50;99.90;;;;;;5075853;28;20029;-62
2022/03/10 09:17:08;;;;;;;23.02;17.45;;;31.50;99.90;;;;;;5076145;28;20029;-63
2022/03/10 09:19:35;;;;;;;31.77;22.25;;;31.50;99.90;;;;;;5075961;28;20054;-62
2022/03/10 09:22:02;;;;;;;45.63;30.63;;;31.60;99.90;;;;;;5076180;28;20129;-62
2022/03/10 09:24:30;;;;;;;62.30;40.45;;;31.60;99.90;;;;;;5074949;28;20471;-63
2022/03/10 09:26:57;;;;;;;67.38;48.28;;;31.60;99.90;;;;;;5068021;28;20035;-63
2022/03/10 09:29:24;;;;;;;90.18;77.13;;;31.70;99.90;;;;;;5055442;28;20107;-62
2022/03/10 09:31:52;;;;;;;116.80;100.07;;;31.70;99.90;;;;;;5073402;28;20440;-62
2022/03/10 09:34:18;;;;;;;50.13;39.63;;;31.80;99.90;;;;;;5065599;28;20043;-62
2022/03/10 09:36:45;;;;;;;21.88;18.85;;;31.80;99.90;;;;;;5070313;28;20397;-63
2022/03/10 09:39:13;;;;;;;13.30;7.20;;;31.80;99.90;;;;;;5075793;28;20035;-63
2022/03/10 09:41:41;;;;;;;12.85;10.48;;;31.70;99.90;;;;;;5072029;28;20040;-63
2022/03/10 09:44:20;;;;;;;10.73;6.85;;;31.70;99.90;;;;;;5057425;28;20513;-61
2022/03/10 09:46:50;;;;;;;9.25;5.82;;;31.60;99.90;;;;;;5075733;28;20067;-62
2022/03/10 09:49:21;;;;;;;10.05;6.20;;;31.60;99.90;;;;;;5065181;28;20096;-62
2022/03/10 09:51:50;;;;;;;10.27;5.97;;;31.60;99.90;;;;;;5073362;28;20024;-62
2022/03/10 09:54:18;;;;;;;13.73;6.30;;;31.50;99.90;;;;;;5075539;28;20047;-63
2022/03/10 09:56:45;;;;;;;77.82;55.63;;;31.50;99.90;;;;;;5075062;28;20043;-62
2022/03/10 09:59:12;;;;;;;105.38;76.22;;;31.50;99.90;;;;;;5073779;28;20029;-63
2022/03/10 10:01:39;;;;;;;22.13;12.23;;;31.40;99.90;;;;;;5070904;28;20034;-62
2022/03/10 10:04:06;;;;;;;15.55;9.35;;;31.20;99.90;;;;;;5064408;28;20107;-62
2022/03/10 10:06:56;;;;;;;157.40;113.18;;;30.90;99.90;;;;;;5075278;28;20021;-63
2022/03/10 10:09:23;;;;;;;39.03;27.02;;;30.80;99.90;;;;;;5075017;28;20104;-62
2022/03/10 10:11:50;;;;;;;15.25;8.40;;;30.70;99.90;;;;;;5075101;28;20040;-63
2022/03/10 10:14:37;;;;;;;15.25;12.13;;;30.50;99.90;;;;;;5074885;28;20024;-61
2022/03/10 10:17:04;;;;;;;23.75;12.02;;;30.40;99.90;;;;;;5075155;28;20036;-62
2022/03/10 10:19:35;;;;;;;29.05;12.38;;;30.30;99.90;;;;;;5073026;28;20067;-62
2022/03/10 10:22:15;;;;;;;18.58;11.73;;;29.80;99.90;;;;;;5073970;28;20465;-60
2022/03/10 10:24:49;;;;;;;12.30;6.85;;;29.00;99.90;;;;;;5054904;28;20033;-61
2022/03/10 10:27:19;;;;;;;32.80;21.15;;;28.20;99.90;;;;;;5063221;28;20489;-61
2022/03/10 10:29:47;;;;;;;35.40;27.05;;;28.10;99.90;;;;;;5074643;28;20028;-62
2022/03/10 10:32:23;;;;;;;16.08;12.15;;;28.00;99.90;;;;;;5073494;28;20037;-61
2022/03/10 10:35:00;;;;;;;18.90;12.23;;;27.90;99.90;;;;;;5074492;28;20033;-62
2022/03/10 10:37:27;;;;;;;12.43;8.07;;;27.90;99.90;;;;;;5071904;28;20037;-61
2022/03/10 10:39:56;;;;;;;9.13;6.72;;;28.00;99.90;;;;;;5073714;28;20104;-61
2022/03/10 10:42:28;;;;;;;11.90;6.50;;;28.00;99.90;;;;;;5074218;28;20036;-61
2022/03/10 10:44:55;;;;;;;8.88;5.90;;;28.10;99.90;;;;;;5074475;28;20032;-60
2022/03/10 10:47:22;;;;;;;8.05;5.55;;;28.20;99.90;;;;;;5074461;28;20059;-61
2022/03/10 10:50:00;;;;;;;12.45;7.38;;;28.50;99.90;;;;;;5074339;28;20028;-61
2022/03/10 10:52:40;;;;;;;11.25;8.23;;;28.70;99.90;;;;;;5070835;28;20402;-60
2022/03/10 10:55:13;;;;;;;11.48;7.82;;;28.90;99.90;;;;;;5054214;28;20025;-61
2022/03/10 10:57:40;;;;;;;13.15;8.02;;;29.00;99.90;;;;;;5058579;28;20358;-61
2022/03/10 11:00:13;;;;;;;11.75;7.78;;;29.10;99.90;;;;;;5060617;28;20020;-61
2022/03/10 11:02:44;;;;;;;10.10;7.18;;;29.00;99.90;;;;;;5073972;28;20559;-61
2022/03/10 11:05:14;;;;;;;13.73;7.45;;;29.10;99.90;;;;;;5074091;28;20500;-60
2022/03/10 11:07:42;;;;;;;16.60;7.15;;;29.10;99.90;;;;;;5073734;28;20550;-60
2022/03/10 11:10:11;;;;;;;23.83;11.10;;;29.20;99.90;;;;;;5074050;28;20086;-60
2022/03/10 11:12:41;;;;;;;26.85;15.20;;;29.20;99.90;;;;;;5073821;28;20032;-60
2022/03/10 11:15:09;;;;;;;31.17;17.88;;;29.20;99.90;;;;;;5073793;28;20101;-61
2022/03/10 11:17:38;;;;;;;27.50;15.68;;;29.20;99.90;;;;;;5074064;28;20100;-59
2022/03/10 11:20:09;;;;;;;21.67;11.98;;;29.30;99.90;;;;;;5073722;28;20048;-61
2022/03/10 11:22:57;;;;;;;16.25;8.77;;;29.20;99.90;;;;;;5061724;28;20021;-60
2022/03/10 11:25:33;;;;;;;14.52;7.72;;;29.20;99.90;;;;;;5056860;28;20110;-60
2022/03/10 11:28:14;;;;;;;17.60;8.05;;;29.30;99.90;;;;;;5066417;28;20028;-60
2022/03/10 11:30:40;;;;;;;12.70;6.85;;;29.30;99.90;;;;;;5065728;28;20024;-61
2022/03/10 11:33:16;;;;;;;15.25;6.68;;;29.30;99.90;;;;;;5063629;28;20111;-60
2022/03/10 11:35:49;;;;;;;8.98;6.40;;;29.40;99.90;;;;;;5065213;28;20047;-59
2022/03/10 11:38:17;;;;;;;10.32;6.95;;;29.40;99.90;;;;;;5066952;28;20036;-62
2022/03/10 11:40:56;;;;;;;13.68;7.25;;;29.40;99.90;;;;;;5063801;28;20036;-59
2022/03/10 11:43:36;;;;;;;15.05;8.85;;;29.40;99.90;;;;;;5064368;28;20013;-60
2022/03/10 11:46:18;;;;;;;17.73;9.30;;;29.40;99.90;;;;;;5064258;28;20389;-60
2022/03/10 11:49:03;;;;;;;17.42;9.95;;;29.30;99.90;;;;;;5067348;28;20025;-59
2022/03/10 11:51:53;;;;;;;13.50;9.93;;;29.30;99.90;;;;;;5068008;28;20454;-61
2022/03/10 11:54:21;;;;;;;15.73;9.27;;;29.30;99.90;;;;;;5064991;28;20036;-61
2022/03/10 11:56:50;;;;;;;17.95;10.55;;;29.40;99.90;;;;;;5074468;28;20113;-60
2022/03/10 11:59:24;;;;;;;17.95;10.27;;;29.40;99.90;;;;;;5073492;28;20020;-60
2022/03/10 12:01:53;;;;;;;19.73;11.60;;;29.40;99.90;;;;;;5073328;28;20032;-59
2022/03/10 12:04:23;;;;;;;16.42;10.25;;;29.30;99.90;;;;;;5073369;28;20029;-60
2022/03/10 12:06:58;;;;;;;17.05;9.73;;;29.30;99.90;;;;;;5073606;28;20021;-60
2022/03/10 12:09:30;;;;;;;13.88;9.70;;;29.30;99.90;;;;;;5073378;28;20523;-60
2022/03/10 12:12:15;;;;;;;12.52;9.82;;;29.20;99.90;;;;;;5072470;28;20040;-61
2022/03/10 12:14:42;;;;;;;13.23;10.00;;;29.20;99.90;;;;;;5072012;28;20112;-59
2022/03/10 12:18:00;;;;;;;20.67;10.77;;;29.20;99.90;;;;;;5071268;28;20026;-60
2022/03/10 12:20:38;;;;;;;16.90;10.10;;;29.10;99.90;;;;;;5065535;28;20109;-61
2022/03/10 12:23:09;;;;;;;16.05;10.00;;;29.10;99.90;;;;;;5071372;28;20453;-61
2022/03/10 12:25:48;;;;;;;88.93;66.00;;;29.00;99.90;;;;;;5080044;28;20058;-61
2022/03/10 12:28:26;;;;;;;60.33;46.00;;;29.00;99.90;;;;;;5062379;28;20037;-60
2022/03/10 12:31:02;;;;;;;49.97;38.90;;;29.00;99.90;;;;;;5072660;28;20028;-60
2022/03/10 12:33:29;;;;;;;107.28;77.63;;;29.00;99.90;;;;;;5072908;28;20029;-61
2022/03/10 12:35:58;;;;;;;93.93;67.03;;;29.00;99.90;;;;;;5072390;28;20024;-60
2022/03/10 12:38:45;;;;;;;45.95;29.92;;;29.00;99.90;;;;;;5070193;28;20094;-60
2022/03/10 12:41:15;;;;;;;56.00;29.08;;;29.00;99.90;;;;;;5063282;28;20102;-61
2022/03/10 12:43:42;;;;;;;44.25;24.08;;;28.90;99.90;;;;;;5057118;28;20029;-60
2022/03/10 12:46:09;;;;;;;59.85;43.17;;;28.90;99.90;;;;;;5059034;28;20112;-61
2022/03/10 12:48:45;;;;;;;27.50;21.05;;;28.90;99.90;;;;;;5060256;28;20029;-60
2022/03/10 12:51:23;;;;;;;22.85;14.32;;;28.90;99.90;;;;;;5072419;28;20565;-60